Searcy, Arkansas
Current Conditions -  °F | °C
As of 3:56 AM on Saturday 22 Nov 2014 (Local Time) from KSRC Reporting Station
Haze Haze  
Wind Chill: 45°   Ceiling: 6000
Heat Index: 45°   Visibility: 2.5mi
Dew Point: 44°   Wind: 0mph
Humidity: 97%   Direction: NA
Pressure: 30.23"   Gusts: NA
Location:  35.25°N, 91.74°W
Report Text: KSRC 220956Z AUTO 00000KT 2 1/2SM BR FEW045 OVC060 07/07 A3023 RMK AO2 RAB32E43 SLP246 P0000 T00720067 TSNO
Loading
Personal Weather Stations






























Interactive Weather Map New forecast layout! Learn more

10-Day Weather Forecast

Advertisements
Track Severe Weather on mobile